Cornion — CQMH — position and weather

sailwx.info

Track history (hours):
 
Tides and Currents Weather Stations Pressure Air Temp Water Temp Dewpoint Dewpoint Depression Visibility Wind Speed Wind Dir Waves Ship Positions

Cornion

Last reported at 2016-Sep-29 07:32 UTC. Time now 2016-Sep-29 08:29 UTC.
Position N 43°34' W 005°42'.

Length 90 m; draft 4.3 m.

Type: Cargo ship. MMSI: 255803370.

Date/timePositionNaut miles runAvg speedWind from/ knotsBaromVisibWave heightAir tempDewpointWater temp
2016-Sep-29 07:32N 43°34' W 005°42'0 0.0
2016-Sep-29 00:33N 43°34' W 005°42'0 0.0
2016-Sep-28 19:33N 43°34' W 005°42'0 0.0
2016-Sep-28 16:33N 43°34' W 005°42'0 0.0
2016-Sep-28 15:33N 43°34' W 005°42'6 2.1
2016-Sep-28 12:33N 43°40' W 005°43'4 0.9
2016-Sep-28 08:30N 43°44' W 005°42'5 0.9
2016-Sep-28 03:26N 43°39' W 005°45'0 0.3
2016-Sep-28 02:33N 43°40' W 005°44'0 0.2
2016-Sep-28 01:33N 43°40' W 005°45'  
2016-Sep-24 03:33N 46°30' W 002°44'1110.7
2016-Sep-24 02:34N 46°41' W 002°43'1110.7
2016-Sep-24 01:34N 46°51' W 002°41'10 9.9
2016-Sep-24 00:33N 47°01' W 002°36'40 8.1
2016-Sep-23 19:33N 47°12' W 001°38'1 0.4
2016-Sep-23 17:33N 47°12' W 001°37'0 0.0
2016-Sep-23 16:33N 47°12' W 001°37'0 0.0
2016-Sep-23 13:13N 47°12' W 001°37'0 0.0
2016-Sep-23 09:27N 47°12' W 001°37'0 0.0
2016-Sep-23 06:19N 47°12' W 001°37'0 0.0
2016-Sep-23 04:31N 47°12' W 001°37'0 0.0
2016-Sep-23 03:33N 47°12' W 001°37'0 0.0
2016-Sep-23 01:10N 47°12' W 001°37'0 0.0
2016-Sep-23 00:32N 47°12' W 001°37'0 0.0
2016-Sep-22 23:33N 47°12' W 001°37'0 0.0
2016-Sep-22 20:33N 47°12' W 001°37'0 0.0
2016-Sep-22 04:34N 47°12' W 001°37'0 0.0
2016-Sep-22 03:33N 47°12' W 001°37'0 0.0
2016-Sep-22 00:34N 47°12' W 001°37'0 0.0
2016-Sep-21 23:34N 47°12' W 001°37'0 0.0
2016-Sep-21 22:33N 47°12' W 001°37'0 0.0
2016-Sep-21 19:34N 47°12' W 001°37'22 2.2
2016-Sep-21 09:29N 47°18' W 002°08'0 0.0
2016-Sep-21 08:29N 47°18' W 002°08'0 0.0
2016-Sep-21 05:32N 47°18' W 002°08'0 0.0
2016-Sep-21 03:33N 47°18' W 002°08'0 0.0
2016-Sep-21 02:33N 47°18' W 002°08'0 0.0
2016-Sep-20 17:33N 47°18' W 002°08'0 0.0
2016-Sep-20 14:33N 47°18' W 002°08'0 0.0
2016-Sep-20 13:34N 47°18' W 002°08'0 0.0
2016-Sep-20 10:34N 47°18' W 002°08'1 0.3
2016-Sep-20 08:33N 47°18' W 002°08'9 9.2
2016-Sep-20 07:33N 47°11' W 002°18'1010.0
2016-Sep-20 06:34N 47°04' W 002°28'32 8.0
2016-Sep-20 02:34N 46°32' W 002°20'28 9.3
2016-Sep-19 23:34N 46°12' W 001°52'  
Track history (hours):
 
Tides and Currents Weather Stations Pressure Air Temp Water Temp Dewpoint Dewpoint Depression Visibility Wind Speed Wind Dir Waves Ship Positions

Cornion

Last reported at 2016-Sep-29 07:32 UTC. Time now 2016-Sep-29 08:29 UTC.
Position N 43°34' W 005°42'.

Length 90 m; draft 4.3 m.

Type: Cargo ship. MMSI: 255803370.

Date/timePositionNaut miles runAvg speedWind from/ knotsBaromVisibWave heightAir tempDewpointWater temp
2016-Sep-29 07:32N 43°34' W 005°42'0 0.0
2016-Sep-29 00:33N 43°34' W 005°42'0 0.0
2016-Sep-28 19:33N 43°34' W 005°42'0 0.0
2016-Sep-28 16:33N 43°34' W 005°42'0 0.0
2016-Sep-28 15:33N 43°34' W 005°42'6 2.1
2016-Sep-28 12:33N 43°40' W 005°43'4 0.9
2016-Sep-28 08:30N 43°44' W 005°42'5 0.9
2016-Sep-28 03:26N 43°39' W 005°45'0 0.3
2016-Sep-28 02:33N 43°40' W 005°44'0 0.2
2016-Sep-28 01:33N 43°40' W 005°45'  
2016-Sep-24 03:33N 46°30' W 002°44'1110.7
2016-Sep-24 02:34N 46°41' W 002°43'1110.7
2016-Sep-24 01:34N 46°51' W 002°41'10 9.9
2016-Sep-24 00:33N 47°01' W 002°36'40 8.1
2016-Sep-23 19:33N 47°12' W 001°38'1 0.4
2016-Sep-23 17:33N 47°12' W 001°37'0 0.0
2016-Sep-23 16:33N 47°12' W 001°37'0 0.0
2016-Sep-23 13:13N 47°12' W 001°37'0 0.0
2016-Sep-23 09:27N 47°12' W 001°37'0 0.0
2016-Sep-23 06:19N 47°12' W 001°37'0 0.0
2016-Sep-23 04:31N 47°12' W 001°37'0 0.0
2016-Sep-23 03:33N 47°12' W 001°37'0 0.0
2016-Sep-23 01:10N 47°12' W 001°37'0 0.0
2016-Sep-23 00:32N 47°12' W 001°37'0 0.0
2016-Sep-22 23:33N 47°12' W 001°37'0 0.0
2016-Sep-22 20:33N 47°12' W 001°37'0 0.0
2016-Sep-22 04:34N 47°12' W 001°37'0 0.0
2016-Sep-22 03:33N 47°12' W 001°37'0 0.0
2016-Sep-22 00:34N 47°12' W 001°37'0 0.0
2016-Sep-21 23:34N 47°12' W 001°37'0 0.0
2016-Sep-21 22:33N 47°12' W 001°37'0 0.0
2016-Sep-21 19:34N 47°12' W 001°37'22 2.2
2016-Sep-21 09:29N 47°18' W 002°08'0 0.0
2016-Sep-21 08:29N 47°18' W 002°08'0 0.0
2016-Sep-21 05:32N 47°18' W 002°08'0 0.0
2016-Sep-21 03:33N 47°18' W 002°08'0 0.0
2016-Sep-21 02:33N 47°18' W 002°08'0 0.0
2016-Sep-20 17:33N 47°18' W 002°08'0 0.0
2016-Sep-20 14:33N 47°18' W 002°08'0 0.0
2016-Sep-20 13:34N 47°18' W 002°08'0 0.0
2016-Sep-20 10:34N 47°18' W 002°08'1 0.3
2016-Sep-20 08:33N 47°18' W 002°08'9 9.2
2016-Sep-20 07:33N 47°11' W 002°18'1010.0
2016-Sep-20 06:34N 47°04' W 002°28'32 8.0
2016-Sep-20 02:34N 46°32' W 002°20'28 9.3
2016-Sep-19 23:34N 46°12' W 001°52'  

Dump ship's entire track history